Accueil
METAR-TAF:

METAR-TAF

Aéroports :

Aéroport du Havre-Octeville

Le Havre, France

latitude: 49-31N, longitude: 000-04E, altitude: 100 m

Observation

Le bulletin a été fait il y a 11 minutes, à 23:30 UTC
Vent 3 kt de nord, variant entre nord et nord-est
Température 13°C
Humidité 77%
Pression 1026 hPa
Visibilité 10 km ou plus
pas de nuages en-dessous de 1500 mètres et pas de cumulonimbus.

METAR: LFOH 232330Z AUTO 01003KT 350V050 CAVOK 13/09 Q1026

Heure: 01:41 (23:41 UTC)

Prévision

Le bulletin a été fait il y a 9 heures et 41 minutes, à 14:00 UTC
Prévision valable du 23 à 14 UTC au 24 à 12 UTC
Vent 12 kt de nord/nord-ouest
Visibilité 10 km ou plus
pas de nuages en-dessous de 1500 mètres et pas de cumulonimbus.

TAF: LFOH 231400Z 2314/2412 34012KT CAVOK

Observations et prévisions météorologiques de plus de 4000 aéroports (messages METAR et TAF).

Les stations disponibles sont représentées par des disques jaunes et rouges sur la carte.

Passer la souris dessus pour voir le nom de la station.

Cliquer dessus pour voir les observations et prévisions météorologiques.

Pour changer de carte: cliquez sur les boutons verts avec une croix noire pour zoomer, sur le bouton vert avec un tiret pour effectuer un zoom arrière, ou sur les flèches vertes pour les cartes adjacentes.


METAR-TAF: